Time;durP1;ratioP1;P1;durP2;ratioP2;P2;SDS_P1;SDS_P2;PMS_P1;PMS_P2;Temp;Humidity;BMP_temperature;BMP_pressure;BME280_temperature;BME280_humidity;BME280_pressure;Samples;Min_cycle;Max_cycle;Signal;HPM_P1;HPM_P2
2022/04/02 00:00:20;;;;;;;4.95;2.88;;;;;;;-1.94;55.70;100886.13;5062892;28;20056;-60
2022/04/02 00:02:45;;;;;;;6.85;2.60;;;;;;;-1.98;55.39;100885.06;5062591;28;20028;-60
2022/04/02 00:05:11;;;;;;;7.75;2.60;;;;;;;-2.02;55.15;100884.06;5062824;28;20074;-59
2022/04/02 00:07:37;;;;;;;9.20;2.45;;;;;;;-2.05;55.69;100883.91;5062609;28;20032;-59
2022/04/02 00:10:03;;;;;;;9.07;2.90;;;;;;;-2.08;55.67;100882.88;5062787;28;20021;-60
2022/04/02 00:12:29;;;;;;;7.18;3.03;;;;;;;-2.10;55.46;100885.34;5062674;28;20017;-60
2022/04/02 00:14:54;;;;;;;7.97;2.75;;;;;;;-2.19;55.63;100878.09;5062519;28;20172;-57
2022/04/02 00:17:20;;;;;;;12.00;2.97;;;;;;;-2.19;55.70;100884.88;5061253;28;20047;-60
2022/04/02 00:19:45;;;;;;;6.05;2.50;;;;;;;-2.29;56.17;100874.22;5062906;28;20028;-60
2022/04/02 00:22:10;;;;;;;4.68;2.53;;;;;;;-2.26;56.22;100884.56;5062584;28;20461;-60
2022/04/02 00:24:36;;;;;;;4.85;2.17;;;;;;;-2.29;56.21;100889.50;5066270;28;20023;-59
2022/04/02 00:27:01;;;;;;;4.53;2.15;;;;;;;-2.34;56.36;100880.75;5065031;28;20325;-60
2022/04/02 00:29:27;;;;;;;6.80;2.28;;;;;;;-2.34;56.34;100888.38;5066176;28;20060;-59
2022/04/02 00:31:53;;;;;;;4.65;1.70;;;;;;;-2.37;56.43;100885.66;5064965;28;20047;-59
2022/04/02 00:34:18;;;;;;;4.80;2.50;;;;;;;-2.41;56.88;100888.84;5066377;28;20396;-59
2022/04/02 00:36:45;;;;;;;5.25;2.70;;;;;;;-2.44;56.78;100891.22;5066390;28;20025;-59
2022/04/02 00:39:10;;;;;;;6.63;2.75;;;;;;;-2.46;57.29;100895.38;5066366;28;20173;-59
2022/04/02 00:41:36;;;;;;;6.00;2.35;;;;;;;-2.46;57.20;100895.38;5066221;28;20509;-59
2022/04/02 00:44:09;;;;;;;6.70;2.28;;;;;;;-2.61;57.40;100878.50;5066046;28;20021;-60
2022/04/02 00:46:37;;;;;;;5.68;2.72;;;;;;;-2.50;57.67;100899.41;5065639;28;20056;-58
2022/04/02 00:49:04;;;;;;;4.57;2.10;;;;;;;-2.52;57.50;100899.31;5066033;28;20044;-59
2022/04/02 00:51:31;;;;;;;4.32;2.20;;;;;;;-2.52;57.55;100895.91;5066118;28;20147;-59
2022/04/02 00:53:56;;;;;;;4.75;2.58;;;;;;;-2.53;57.28;100895.03;5066181;28;20090;-59
2022/04/02 00:56:22;;;;;;;7.13;2.40;;;;;;;-2.54;57.33;100900.91;5066135;28;20017;-59
2022/04/02 00:58:47;;;;;;;4.07;2.38;;;;;;;-2.54;57.13;100897.50;5065940;28;20029;-59
2022/04/02 01:01:13;;;;;;;6.68;2.63;;;;;;;-2.59;57.07;100889.63;5065730;28;20028;-60
2022/04/02 01:03:39;;;;;;;2.97;1.92;;;;;;;-2.57;57.34;100893.09;5065686;28;20024;-59
2022/04/02 01:06:05;;;;;;;4.05;2.30;;;;;;;-2.59;57.23;100894.72;5065739;28;20021;-59
2022/04/02 01:08:30;;;;;;;4.93;1.60;;;;;;;-2.60;57.24;100897.19;5065806;28;20025;-59
2022/04/02 01:11:00;;;;;;;5.55;2.05;;;;;;;-2.67;57.12;100885.81;5065736;28;20025;-60
2022/04/02 01:13:25;;;;;;;5.57;2.08;;;;;;;-2.61;57.24;100896.28;5065545;28;20028;-59
2022/04/02 01:15:51;;;;;;;3.58;1.85;;;;;;;-2.63;57.31;100893.66;5064211;28;20017;-59
2022/04/02 01:18:17;;;;;;;4.65;2.60;;;;;;;-2.61;57.45;100906.47;5063974;28;20492;-59
2022/04/02 01:20:43;;;;;;;3.28;2.05;;;;;;;-2.60;57.51;100907.34;5065410;28;20033;-59
2022/04/02 01:23:08;;;;;;;2.47;1.83;;;;;;;-2.61;57.67;100896.28;5063959;28;20182;-59
2022/04/02 01:25:35;;;;;;;3.45;1.60;;;;;;;-2.58;57.73;100905.75;5065342;28;20048;-59
2022/04/02 01:28:03;;;;;;;4.03;1.65;;;;;;;-2.56;57.76;100894.88;5065325;28;20542;-59
2022/04/02 01:30:29;;;;;;;5.80;2.30;;;;;;;-2.53;57.80;100911.94;5065189;28;20290;-60
2022/04/02 01:32:55;;;;;;;5.45;1.80;;;;;;;-2.53;57.86;100907.75;5065023;28;20084;-59
2022/04/02 01:35:21;;;;;;;3.03;1.73;;;;;;;-2.55;57.84;100904.25;5064999;28;20051;-58
2022/04/02 01:37:48;;;;;;;2.70;1.85;;;;;;;-2.54;57.95;100915.31;5065196;28;20056;-59
2022/04/02 01:40:13;;;;;;;5.75;2.47;;;;;;;-2.57;57.94;100917.69;5065163;28;20021;-58
2022/04/02 01:42:38;;;;;;;5.43;2.97;;;;;;;-2.60;58.28;100910.75;5065207;28;20055;-58
2022/04/02 01:45:04;;;;;;;5.22;2.42;;;;;;;-2.63;58.24;100910.59;5064977;28;20078;-58
2022/04/02 01:47:30;;;;;;;5.32;1.60;;;;;;;-2.67;58.65;100913.75;5064778;28;20031;-59
2022/04/02 01:49:55;;;;;;;3.45;1.73;;;;;;;-2.68;58.75;100912.00;5065120;28;20037;-59
2022/04/02 01:52:21;;;;;;;3.47;1.92;;;;;;;-2.70;58.81;100914.44;5064658;28;20082;-59
2022/04/02 01:54:47;;;;;;;2.47;1.80;;;;;;;-2.72;58.85;100910.97;5064591;28;20028;-60
2022/04/02 01:57:13;;;;;;;4.18;1.85;;;;;;;-2.72;58.66;100907.56;5064690;28;20048;-59
2022/04/02 01:59:44;;;;;;;9.52;2.00;;;;;;;-2.76;58.48;100907.38;5064561;28;20028;-60
2022/04/02 02:02:10;;;;;;;6.25;1.95;;;;;;;-2.74;58.50;100910.00;5064444;28;20028;-58
2022/04/02 02:04:36;;;;;;;4.28;2.47;;;;;;;-2.78;58.67;100905.56;5063322;28;20044;-59
2022/04/02 02:07:03;;;;;;;7.55;2.75;;;;;;;-2.81;58.72;100913.03;5064530;28;20331;-59
2022/04/02 02:09:28;;;;;;;8.00;2.75;;;;;;;-2.83;58.68;100910.41;5062944;28;20031;-59
2022/04/02 02:11:54;;;;;;;6.18;2.50;;;;;;;-2.86;58.91;100913.63;5064479;28;20080;-59
2022/04/02 02:14:19;;;;;;;7.28;3.30;;;;;;;-2.84;58.85;100913.72;5064333;28;20077;-59
2022/04/02 02:16:45;;;;;;;4.70;2.25;;;;;;;-2.83;58.91;100907.84;5064296;28;20105;-58
2022/04/02 02:19:10;;;;;;;3.75;2.03;;;;;;;-2.88;59.16;100905.06;5064089;28;20363;-60
2022/04/02 02:21:35;;;;;;;4.18;1.85;;;;;;;-2.82;59.30;100908.72;5064377;28;20033;-60
2022/04/02 02:24:01;;;;;;;5.03;1.80;;;;;;;-2.86;59.44;100898.38;5063962;28;20052;-59
2022/04/02 02:26:26;;;;;;;5.35;2.58;;;;;;;-2.81;59.44;100913.03;5063907;28;20029;-60
2022/04/02 02:28:52;;;;;;;6.03;2.30;;;;;;;-2.84;59.64;100913.72;5064085;28;20032;-60
2022/04/02 02:31:17;;;;;;;7.63;2.10;;;;;;;-2.87;59.60;100911.00;5063938;28;20125;-60
2022/04/02 02:36:26;;;;;;;7.82;2.17;;;;;;;-2.91;59.41;100916.72;5064071;28;20059;-60
2022/04/02 02:38:52;;;;;;;4.05;1.90;;;;;;;-2.94;59.48;100914.88;5063863;28;20024;-60
2022/04/02 02:41:18;;;;;;;3.30;2.08;;;;;;;-2.95;59.87;100923.28;5063946;28;20130;-60
2022/04/02 02:43:44;;;;;;;3.30;2.28;;;;;;;-2.99;60.04;100913.75;5063889;28;20497;-60
2022/04/02 02:46:10;;;;;;;5.45;2.60;;;;;;;-3.01;59.94;100911.13;5062822;28;20070;-60
2022/04/02 02:48:35;;;;;;;4.53;1.85;;;;;;;-3.02;60.21;100906.81;5063132;28;20021;-57
2022/04/02 02:51:00;;;;;;;4.65;2.30;;;;;;;-3.02;60.48;100906.81;5063545;28;20159;-59
2022/04/02 02:53:26;;;;;;;4.30;1.80;;;;;;;-3.02;60.70;100906.81;5063630;28;20021;-58
2022/04/02 02:55:51;;;;;;;4.53;2.10;;;;;;;-3.03;60.41;100907.63;5063591;28;20059;-57
2022/04/02 02:58:17;;;;;;;4.30;1.77;;;;;;;-3.03;60.53;100915.25;5063535;28;20104;-59
2022/04/02 03:00:43;;;;;;;3.22;1.88;;;;;;;-3.03;60.45;100920.34;5063473;28;20017;-58
2022/04/02 03:03:09;;;;;;;7.13;2.10;;;;;;;-3.04;60.35;100908.44;5061813;28;20028;-58
2022/04/02 03:05:35;;;;;;;4.88;2.08;;;;;;;-3.05;60.29;100909.19;5063546;28;20041;-58
2022/04/02 03:08:01;;;;;;;3.22;1.98;;;;;;;-3.08;60.20;100910.72;5063563;28;20032;-60
2022/04/02 03:10:27;;;;;;;6.25;2.22;;;;;;;-3.08;60.47;100906.50;5063450;28;20131;-58
2022/04/02 03:12:55;;;;;;;5.63;2.20;;;;;;;-3.08;60.57;100914.09;5063283;28;20262;-58
2022/04/02 03:15:21;;;;;;;6.80;2.38;;;;;;;-3.19;60.32;100905.00;5063405;28;20053;-59
2022/04/02 03:17:50;;;;;;;4.18;2.30;;;;;;;-3.09;60.26;100911.47;5063150;28;20036;-58
2022/04/02 03:20:17;;;;;;;4.72;2.33;;;;;;;-3.09;60.17;100909.84;5063074;28;20031;-59
2022/04/02 03:22:45;;;;;;;7.70;2.58;;;;;;;-3.12;60.22;100912.19;5063017;28;20029;-59
2022/04/02 03:25:18;;;;;;;6.72;2.35;;;;;;;-3.12;60.23;100913.09;5063094;28;20017;-59
2022/04/02 03:27:45;;;;;;;5.35;2.17;;;;;;;-3.10;60.25;100915.72;5063120;28;20131;-58
2022/04/02 03:30:13;;;;;;;3.75;2.08;;;;;;;-3.09;60.20;100920.00;5062760;28;20021;-58
2022/04/02 03:32:39;;;;;;;4.38;2.53;;;;;;;-3.12;60.26;100912.19;5061367;28;20052;-60
2022/04/02 03:35:06;;;;;;;8.68;2.47;;;;;;;-3.08;60.04;100919.19;5062687;28;20021;-59
2022/04/02 03:37:36;;;;;;;4.68;2.50;;;;;;;-3.13;60.23;100913.84;5062828;28;20021;-59
2022/04/02 03:40:02;;;;;;;4.93;2.30;;;;;;;-3.06;60.33;100919.28;5062923;28;20092;-59
2022/04/02 03:42:28;;;;;;;6.00;2.42;;;;;;;-3.07;60.36;100920.06;5062818;28;20060;-60
2022/04/02 03:44:53;;;;;;;3.13;1.80;;;;;;;-3.07;60.25;100920.06;5062576;28;20086;-59
2022/04/02 03:47:22;;;;;;;6.28;2.03;;;;;;;-3.07;60.15;100920.06;5062472;28;20029;-59
2022/04/02 03:49:49;;;;;;;6.13;1.92;;;;;;;-3.09;60.29;100914.91;5062771;28;20053;-57
2022/04/02 03:52:15;;;;;;;4.35;2.38;;;;;;;-3.12;60.48;100914.75;5062639;28;20025;-60
2022/04/02 03:54:41;;;;;;;5.47;2.60;;;;;;;-3.16;60.31;100922.97;5062673;28;20473;-58
2022/04/02 03:57:12;;;;;;;4.97;2.13;;;;;;;-3.18;60.36;100916.94;5062885;28;20021;-58
2022/04/02 03:59:39;;;;;;;8.48;2.28;;;;;;;-3.21;60.44;100911.69;5062442;28;20028;-58
2022/04/02 04:02:05;;;;;;;8.57;2.63;;;;;;;-3.24;60.25;100912.38;5061446;28;20025;-58
2022/04/02 04:04:31;;;;;;;4.82;2.30;;;;;;;-3.27;60.29;100918.16;5062466;28;20029;-58
2022/04/02 04:06:57;;;;;;;4.05;2.22;;;;;;;-3.30;60.25;100918.00;5062452;28;20039;-58
2022/04/02 04:09:23;;;;;;;8.10;2.58;;;;;;;-3.37;60.32;100924.38;5062496;28;20037;-58
2022/04/02 04:11:48;;;;;;;4.35;2.25;;;;;;;-3.49;60.26;100905.91;5062664;28;20385;-59
2022/04/02 04:14:15;;;;;;;4.35;2.22;;;;;;;-3.42;60.32;100922.38;5062809;28;20036;-58
2022/04/02 04:16:41;;;;;;;4.53;2.38;;;;;;;-3.40;60.24;100923.34;5062436;28;20043;-58
2022/04/02 04:19:06;;;;;;;7.30;2.72;;;;;;;-3.44;60.27;100916.34;5062370;28;20021;-59
2022/04/02 04:21:32;;;;;;;4.95;2.42;;;;;;;-3.42;60.39;100923.25;5062458;28;20078;-59
2022/04/02 04:23:57;;;;;;;4.68;2.10;;;;;;;-3.43;60.50;100930.78;5062505;28;20051;-60
2022/04/02 04:26:23;;;;;;;5.03;2.15;;;;;;;-3.50;60.60;100922.81;5062531;28;20033;-59
2022/04/02 04:28:48;;;;;;;8.00;2.90;;;;;;;-3.47;60.54;100923.78;5062446;28;20032;-59
2022/04/02 04:31:17;;;;;;;6.80;2.80;;;;;;;-3.46;60.36;100928.94;5060942;28;20112;-59
2022/04/02 04:33:44;;;;;;;9.73;3.05;;;;;;;-3.47;60.33;100928.84;5062186;28;20109;-59
2022/04/02 04:36:10;;;;;;;4.40;2.00;;;;;;;-3.48;60.43;100930.50;5062405;28;20160;-59
2022/04/02 04:38:35;;;;;;;5.60;4.43;;;;;;;-3.49;60.39;100929.66;5062305;28;20036;-59
2022/04/02 04:41:01;;;;;;;9.07;2.53;;;;;;;-3.49;60.40;100933.84;5062412;28;20021;-59
2022/04/02 04:43:27;;;;;;;7.07;2.60;;;;;;;-3.52;60.30;100931.13;5062434;28;20021;-59
2022/04/02 04:45:52;;;;;;;5.53;2.28;;;;;;;-3.57;60.64;100928.34;5062073;28;20053;-59
2022/04/02 04:48:19;;;;;;;4.38;2.10;;;;;;;-3.44;60.86;100932.47;5062077;28;20094;-59
2022/04/02 04:50:44;;;;;;;7.53;2.47;;;;;;;-3.26;61.18;100940.22;5062377;28;20078;-60
2022/04/02 04:53:10;;;;;;;6.30;2.65;;;;;;;-3.00;61.49;100943.38;5061029;28;20099;-59
2022/04/02 04:55:35;;;;;;;3.80;2.28;;;;;;;-2.69;61.61;100939.09;5062139;28;20047;-59
2022/04/02 04:58:02;;;;;;;8.98;2.97;;;;;;;-2.34;61.84;100943.44;5062337;28;20010;-59
2022/04/02 05:00:27;;;;;;;6.28;3.05;;;;;;;-1.96;61.75;100938.59;5061960;28;20025;-60
2022/04/02 05:02:53;;;;;;;6.00;2.60;;;;;;;-1.51;61.72;100951.94;5062139;28;20107;-60
2022/04/02 05:05:18;;;;;;;6.57;3.58;;;;;;;-1.06;61.66;100947.25;5062252;28;20037;-59
2022/04/02 05:07:44;;;;;;;8.98;2.50;;;;;;;-0.65;61.32;100942.34;5062033;28;20021;-60
2022/04/02 05:10:11;;;;;;;4.28;2.75;;;;;;;-0.30;61.17;100954.97;5063213;28;20048;-60
2022/04/02 05:12:38;;;;;;;6.85;2.60;;;;;;;0.21;61.16;100946.97;5064315;28;20089;-59
2022/04/02 05:15:05;;;;;;;4.07;2.38;;;;;;;0.71;60.79;100949.03;5065232;28;20021;-60
2022/04/02 05:17:31;;;;;;;6.38;2.90;;;;;;;1.14;60.00;100959.22;5065544;28;20084;-61
2022/04/02 05:19:57;;;;;;;9.60;3.10;;;;;;;1.43;59.52;100956.94;5065639;28;20033;-59
2022/04/02 05:22:22;;;;;;;5.68;2.78;;;;;;;1.78;58.86;100956.50;5065502;28;20024;-59
2022/04/02 05:24:47;;;;;;;8.50;2.70;;;;;;;1.92;58.26;100954.44;5065688;28;20027;-60
2022/04/02 05:27:13;;;;;;;4.20;2.72;;;;;;;2.14;57.80;100942.38;5065413;28;20028;-60
2022/04/02 05:29:38;;;;;;;7.47;3.10;;;;;;;2.35;57.28;100951.63;5065197;28;20036;-59
2022/04/02 05:32:04;;;;;;;3.60;2.17;;;;;;;2.61;56.82;100954.22;5065390;28;20052;-60
2022/04/02 05:34:30;;;;;;;4.63;2.33;;;;;;;2.91;56.04;100952.59;5065272;28;20060;-60
2022/04/02 05:36:56;;;;;;;7.05;3.15;;;;;;;3.02;55.49;100956.38;5065420;28;20013;-59
2022/04/02 05:39:21;;;;;;;7.53;2.83;;;;;;;3.28;56.08;100956.31;5065165;28;20039;-61
2022/04/02 05:41:48;;;;;;;5.97;2.97;;;;;;;3.82;55.99;100961.28;5065166;28;20039;-59
2022/04/02 05:44:13;;;;;;;5.10;2.30;;;;;;;4.59;55.40;100951.31;5064779;28;20027;-59
2022/04/02 05:46:38;;;;;;;2.97;2.20;;;;;;;5.26;54.36;100952.00;5063226;28;20128;-60
2022/04/02 05:49:04;;;;;;;3.72;2.15;;;;;;;5.72;53.32;100949.53;5064896;28;20025;-60
2022/04/02 05:51:30;;;;;;;7.65;2.78;;;;;;;6.22;51.62;100949.66;5064848;28;20473;-60
2022/04/02 05:53:57;;;;;;;4.90;2.95;;;;;;;6.62;51.24;100944.34;5064860;28;20464;-61
2022/04/02 05:56:22;;;;;;;5.72;2.42;;;;;;;7.15;50.25;100952.91;5065172;28;20053;-60
2022/04/02 05:58:48;;;;;;;4.18;2.53;;;;;;;7.28;48.41;100954.81;5065030;28;20055;-60
2022/04/02 06:01:14;;;;;;;4.90;1.90;;;;;;;7.13;47.73;100954.56;5064952;28;20484;-59
2022/04/02 06:03:40;;;;;;;3.92;1.90;;;;;;;7.06;46.93;100956.22;5064620;28;20051;-59
2022/04/02 06:06:09;;;;;;;4.60;2.10;;;;;;;6.76;46.25;100947.13;5064830;28;20089;-59
2022/04/02 06:08:34;;;;;;;4.10;1.80;;;;;;;6.45;46.22;100953.50;5064870;28;20072;-59
2022/04/02 06:11:01;;;;;;;3.13;1.85;;;;;;;6.38;46.56;100959.41;5064747;28;20097;-59
2022/04/02 06:13:27;;;;;;;3.42;1.77;;;;;;;6.32;45.97;100962.78;5064664;28;20028;-60
2022/04/02 06:15:52;;;;;;;4.55;1.73;;;;;;;6.22;45.78;100955.69;5064607;28;20024;-60
2022/04/02 06:18:18;;;;;;;3.22;1.55;;;;;;;6.38;45.60;100963.69;5064594;28;20429;-59
2022/04/02 06:20:48;;;;;;;2.85;1.60;;;;;;;6.42;45.11;100962.94;5064409;28;20025;-60
2022/04/02 06:23:14;;;;;;;2.72;1.60;;;;;;;6.44;45.23;100963.81;5064662;28;20028;-60
2022/04/02 06:25:39;;;;;;;3.88;1.52;;;;;;;6.74;44.74;100966.91;5064476;28;20037;-59
2022/04/02 06:28:05;;;;;;;2.90;1.67;;;;;;;7.19;45.09;100971.03;5064892;28;20373;-59
2022/04/02 06:30:30;;;;;;;1.50;1.20;;;;;;;7.76;44.06;100969.22;5064525;28;20113;-59
2022/04/02 06:32:56;;;;;;;5.13;1.83;;;;;;;7.93;43.07;100972.00;5064484;28;20017;-60
2022/04/02 06:35:21;;;;;;;5.10;1.42;;;;;;;7.77;42.25;100976.97;5064309;28;20041;-59
2022/04/02 06:37:48;;;;;;;3.03;1.20;;;;;;;7.54;41.99;100976.69;5064455;28;20027;-61
2022/04/02 06:40:14;;;;;;;3.30;1.50;;;;;;;7.39;42.63;100979.91;5064345;28;20025;-61
2022/04/02 06:42:39;;;;;;;3.50;1.55;;;;;;;7.27;42.59;100976.31;5064266;28;20116;-59
2022/04/02 06:45:05;;;;;;;4.30;1.83;;;;;;;7.39;42.78;100979.91;5064093;28;20049;-59
2022/04/02 06:47:31;;;;;;;4.68;1.90;;;;;;;7.78;42.70;100977.84;5063779;28;20484;-59
2022/04/02 06:49:57;;;;;;;3.47;1.92;;;;;;;8.07;42.02;100982.47;5064145;28;20024;-60
2022/04/02 06:52:23;;;;;;;3.13;1.40;;;;;;;8.36;41.77;100966.41;5064106;28;20063;-59
2022/04/02 06:54:49;;;;;;;3.70;1.50;;;;;;;8.81;40.93;100971.16;5064093;28;20059;-61
2022/04/02 06:57:21;;;;;;;3.40;1.70;;;;;;;8.98;40.26;100971.28;5063697;28;20016;-60
2022/04/02 06:59:47;;;;;;;4.93;1.70;;;;;;;9.14;39.54;100967.06;5063986;28;20029;-60
2022/04/02 07:02:13;;;;;;;2.67;1.50;;;;;;;8.94;38.69;100966.94;5062554;28;20032;-59
2022/04/02 07:04:39;;;;;;;4.00;1.80;;;;;;;8.70;38.71;100972.78;5063499;28;20024;-59
2022/04/02 07:07:04;;;;;;;3.70;1.50;;;;;;;8.59;39.27;100963.22;5063610;28;20036;-60
2022/04/02 07:09:29;;;;;;;2.13;1.40;;;;;;;8.84;39.39;100971.16;5063913;28;20016;-59
2022/04/02 07:11:55;;;;;;;2.95;1.60;;;;;;;9.18;39.13;100978.31;5063487;28;20376;-59
2022/04/02 07:14:21;;;;;;;3.17;1.60;;;;;;;9.28;38.64;100974.06;5063608;28;20032;-59
2022/04/02 07:16:47;;;;;;;3.55;1.60;;;;;;;9.44;38.09;100971.56;5063478;28;20013;-64
2022/04/02 07:19:13;;;;;;;2.33;1.42;;;;;;;9.17;37.33;100977.44;5063370;28;20119;-63
2022/04/02 07:21:41;;;;;;;3.90;1.60;;;;;;;8.82;37.98;100969.44;5063600;28;20036;-64
2022/04/02 07:24:07;;;;;;;2.28;1.40;;;;;;;9.01;38.31;100965.28;5063279;28;20116;-63
2022/04/02 07:26:32;;;;;;;3.03;1.75;;;;;;;9.39;37.72;100980.16;5063351;28;20024;-64
2022/04/02 07:28:59;;;;;;;2.88;1.55;;;;;;;9.49;37.51;100980.25;5063374;28;20028;-64
2022/04/02 07:31:25;;;;;;;3.85;1.52;;;;;;;9.52;37.65;100972.47;5063655;28;20098;-64
2022/04/02 07:33:50;;;;;;;5.97;2.38;;;;;;;9.62;36.63;100975.97;5062692;28;20021;-66
2022/04/02 07:36:49;;;;;;;2.58;2.03;;;;;;;9.74;36.91;100976.03;5063213;28;20021;-63
2022/04/02 07:39:19;;;;;;;4.43;1.60;;;;;;;9.86;37.01;100977.81;5063533;28;20060;-64
2022/04/02 07:41:58;;;;;;;2.40;1.52;;;;;;;9.83;35.23;100982.97;5063063;28;20020;-63
2022/04/02 07:44:34;;;;;;;8.45;2.00;;;;;;;9.66;36.33;100973.38;5063063;28;20044;-64
2022/04/02 07:46:59;;;;;;;11.07;3.10;;;;;;;9.99;36.04;100977.84;5062971;28;20112;-65
2022/04/02 07:49:28;;;;;;;3.92;1.75;;;;;;;10.51;35.86;100976.28;5063039;28;20559;-63
2022/04/02 07:51:55;;;;;;;5.93;1.92;;;;;;;11.19;35.38;100974.50;5063126;28;20352;-67
2022/04/02 07:54:23;;;;;;;5.78;1.73;;;;;;;11.64;34.44;100972.66;5063071;28;20052;-64
2022/04/02 07:56:51;;;;;;;6.78;2.17;;;;;;;11.75;33.53;100976.94;5061252;28;20024;-68
2022/04/02 07:59:26;;;;;;;3.60;1.58;;;;;;;11.89;34.07;100974.25;5062899;28;20084;-68
2022/04/02 08:01:53;;;;;;;3.17;1.50;;;;;;;12.02;32.82;100978.56;5045114;28;20326;-63
2022/04/02 08:04:20;;;;;;;5.35;1.60;;;;;;;11.73;32.21;100981.28;5062240;28;20081;-63
2022/04/02 08:06:48;;;;;;;9.45;2.40;;;;;;;11.37;32.74;100974.44;5062420;28;20079;-64
2022/04/02 08:09:15;;;;;;;3.08;1.50;;;;;;;11.38;32.28;100976.19;5061026;28;20074;-67
2022/04/02 08:11:41;;;;;;;5.78;1.95;;;;;;;11.26;32.35;100982.28;5062359;28;20032;-63
2022/04/02 08:14:08;;;;;;;5.68;1.60;;;;;;;11.02;33.09;100978.84;5062577;28;20024;-63
2022/04/02 08:16:42;;;;;;;5.28;1.80;;;;;;;11.10;32.79;100988.38;5062115;28;20090;-64
2022/04/02 08:19:09;;;;;;;4.53;1.67;;;;;;;11.05;32.51;100982.31;5062283;28;20514;-63
2022/04/02 08:21:35;;;;;;;5.00;1.70;;;;;;;10.91;32.61;100986.66;5062321;28;20040;-64
2022/04/02 08:24:02;;;;;;;3.35;1.55;;;;;;;10.77;32.53;100988.38;5062423;28;20081;-62
2022/04/02 08:26:46;;;;;;;4.03;1.15;;;;;;;10.91;32.84;100988.38;5062393;28;20475;-62
2022/04/02 08:29:38;;;;;;;2.35;1.30;;;;;;;11.29;32.55;100986.63;5062478;28;20033;-65
2022/04/02 08:32:16;;;;;;;5.18;1.70;;;;;;;11.74;32.10;100993.44;5062367;28;20020;-63
2022/04/02 08:34:53;;;;;;;4.65;1.65;;;;;;;11.84;31.34;100996.81;5062537;28;20079;-66
2022/04/02 08:37:36;;;;;;;2.85;1.40;;;;;;;11.87;30.88;100987.28;5062407;28;20032;-65
2022/04/02 08:40:39;;;;;;;3.25;1.33;;;;;;;12.24;30.73;100985.38;5062341;28;20025;-65
2022/04/02 08:43:42;;;;;;;2.08;1.23;;;;;;;12.28;29.47;100984.50;5062503;28;20100;-63
2022/04/02 08:46:35;;;;;;;3.60;1.50;;;;;;;12.23;28.96;100989.75;5064451;28;20105;-64
2022/04/02 08:49:34;;;;;;;4.20;1.15;;;;;;;12.66;28.82;100986.84;5065834;28;20051;-64
2022/04/02 08:52:16;;;;;;;2.75;1.50;;;;;;;13.08;27.73;100987.34;5047687;28;20036;-63
2022/04/02 08:55:14;;;;;;;7.82;1.80;;;;;;;13.29;27.72;100989.78;5065822;28;20029;-64
2022/04/02 08:57:42;;;;;;;2.85;1.42;;;;;;;13.84;27.34;100975.25;5066089;28;20024;-64
2022/04/02 09:00:10;;;;;;;2.50;1.17;;;;;;;13.92;24.37;100982.09;5066019;28;20032;-62
2022/04/02 09:02:54;;;;;;;2.22;1.27;;;;;;;13.45;25.51;100982.66;5065629;28;20028;-62
2022/04/02 09:05:53;;;;;;;1.38;1.20;;;;;;;13.45;24.44;100985.25;5065707;28;20040;-63
2022/04/02 09:08:37;;;;;;;2.33;1.00;;;;;;;13.16;24.15;100984.69;5066082;28;20266;-63
2022/04/02 09:11:20;;;;;;;2.67;1.20;;;;;;;12.99;24.30;100983.09;5065594;28;20443;-63
2022/04/02 09:14:11;;;;;;;3.15;0.98;;;;;;;13.19;24.33;100987.25;5065853;28;20326;-63
2022/04/02 09:17:04;;;;;;;2.40;1.08;;;;;;;13.11;24.54;100978.66;5065598;28;20025;-63
2022/04/02 09:19:30;;;;;;;3.20;1.10;;;;;;;13.48;24.18;100975.63;5065312;28;20025;-64
2022/04/02 09:22:15;;;;;;;2.35;1.10;;;;;;;13.57;23.64;100969.50;5065379;28;20170;-62
2022/04/02 09:25:22;;;;;;;2.75;1.10;;;;;;;13.79;23.46;100969.22;5065543;28;20029;-63
2022/04/02 09:27:54;;;;;;;6.20;1.30;;;;;;;13.36;22.88;100970.56;5065345;28;20218;-62
2022/04/02 09:30:44;;;;;;;3.25;1.00;;;;;;;13.19;22.63;100969.00;5064798;28;20025;-63
2022/04/02 09:33:30;;;;;;;4.68;1.10;;;;;;;13.37;23.25;100967.09;5064932;28;20017;-62
2022/04/02 09:36:20;;;;;;;5.65;1.00;;;;;;;14.05;22.19;100961.91;5065029;28;20087;-63
2022/04/02 09:39:04;;;;;;;2.20;0.90;;;;;;;13.54;20.90;100966.91;5065054;28;20029;-63
2022/04/02 09:42:01;;;;;;;2.25;0.93;;;;;;;12.42;21.16;100965.31;5063568;28;20024;-65
2022/04/02 09:44:33;;;;;;;0.98;0.75;;;;;;;11.03;22.32;100965.00;5063344;28;20104;-66
2022/04/02 09:47:29;;;;;;;2.97;0.70;;;;;;;9.67;23.51;100957.00;5064460;28;20041;-65
2022/04/02 09:50:13;;;;;;;3.67;0.85;;;;;;;8.87;24.75;100959.97;5064615;28;20093;-65
2022/04/02 09:52:53;;;;;;;3.90;0.90;;;;;;;9.57;25.37;100956.94;5064716;28;20035;-64
2022/04/02 09:55:51;;;;;;;2.67;0.80;;;;;;;9.73;24.08;100958.72;5064375;28;20088;-64
2022/04/02 09:58:41;;;;;;;4.05;1.02;;;;;;;9.12;24.58;100953.22;5025103;28;20029;-66
2022/04/02 10:01:27;;;;;;;1.15;0.80;;;;;;;9.43;24.73;100944.78;5041658;28;20059;-66
2022/04/02 10:04:16;;;;;;;1.67;0.70;;;;;;;10.70;24.48;100946.00;5041467;28;20052;-65
2022/04/02 10:06:45;;;;;;;1.25;0.70;;;;;;;11.98;22.88;100940.38;5041511;28;20040;-66
2022/04/02 10:09:11;;;;;;;1.65;0.80;;;;;;;12.55;21.76;100930.50;5025028;28;20099;-66
2022/04/02 10:11:55;;;;;;;2.03;0.85;;;;;;;12.68;20.42;100930.41;5041246;28;20116;-66
2022/04/02 10:14:26;;;;;;;2.55;0.80;;;;;;;11.92;21.18;100930.03;5041187;28;20060;-64
2022/04/02 10:17:02;;;;;;;1.10;0.70;;;;;;;12.14;21.91;100930.78;5041517;28;20052;-63
2022/04/02 10:19:30;;;;;;;2.25;0.80;;;;;;;12.61;21.31;100925.25;5041586;28;20056;-63
2022/04/02 10:22:18;;;;;;;2.05;0.90;;;;;;;12.89;21.36;100934.56;5041509;28;20037;-63
2022/04/02 10:24:50;;;;;;;1.35;0.80;;;;;;;12.47;20.72;100921.88;5041522;28;20037;-64
2022/04/02 10:27:44;;;;;;;1.23;0.82;;;;;;;11.56;21.36;100937.13;5041285;28;20037;-62
2022/04/02 10:30:13;;;;;;;4.28;0.82;;;;;;;11.62;21.86;100927.56;5039227;28;20033;-65
2022/04/02 10:32:53;;;;;;;1.70;0.75;;;;;;;10.87;21.73;100932.97;5040977;28;20029;-62
2022/04/02 10:35:21;;;;;;;1.92;0.80;;;;;;;10.05;23.00;100941.53;5054264;28;20474;-64
2022/04/02 10:38:10;;;;;;;3.20;1.15;;;;;;;9.40;23.78;100945.63;5064066;28;20036;-64
2022/04/02 10:40:50;;;;;;;3.15;0.98;;;;;;;9.02;24.38;100941.09;5063469;28;20100;-63
2022/04/02 10:43:27;;;;;;;4.50;1.00;;;;;;;8.71;25.11;100940.84;5063527;28;20021;-64
2022/04/02 10:45:53;;;;;;;3.47;1.20;;;;;;;8.40;25.81;100934.53;5063220;28;20041;-63
2022/04/02 10:48:28;;;;;;;3.78;0.95;;;;;;;8.12;26.76;100934.28;5063636;28;20048;-63
2022/04/02 10:50:55;;;;;;;1.55;1.10;;;;;;;7.88;27.26;100933.16;5063716;28;20556;-63
2022/04/02 10:53:22;;;;;;;3.92;1.13;;;;;;;7.81;27.93;100932.22;5063801;28;20131;-62
2022/04/02 10:55:52;;;;;;;2.72;1.10;;;;;;;7.62;28.20;100928.53;5063291;28;20025;-63
2022/04/02 10:58:20;;;;;;;2.80;1.00;;;;;;;7.49;28.37;100939.59;5062170;28;20117;-62
2022/04/02 11:00:46;;;;;;;2.17;0.95;;;;;;;7.43;28.43;100928.31;5063344;28;20020;-62
2022/04/02 11:03:30;;;;;;;8.35;1.17;;;;;;;7.68;28.98;100926.03;5062956;28;20051;-63
2022/04/02 11:05:56;;;;;;;2.55;1.20;;;;;;;7.99;29.90;100924.63;5062933;28;20021;-65
2022/04/02 11:08:29;;;;;;;4.22;2.35;;;;;;;8.43;29.58;100924.22;5062459;28;20033;-65
2022/04/02 11:10:55;;;;;;;3.67;1.10;;;;;;;8.44;28.49;100917.31;5062789;28;20085;-66
2022/04/02 11:13:29;;;;;;;1.88;1.00;;;;;;;8.68;28.13;100911.53;5063035;28;20088;-66
2022/04/02 11:15:55;;;;;;;2.28;1.08;;;;;;;9.11;27.63;100911.78;5062898;28;20103;-66
2022/04/02 11:18:20;;;;;;;2.10;1.10;;;;;;;9.98;27.37;100908.69;5062839;28;20040;-65
2022/04/02 11:20:48;;;;;;;2.38;1.17;;;;;;;10.80;26.79;100907.03;5062804;28;20497;-64
2022/04/02 11:23:17;;;;;;;2.22;1.25;;;;;;;12.01;26.14;100906.53;5062350;28;20118;-64
2022/04/02 11:25:54;;;;;;;1.27;0.80;;;;;;;13.36;24.33;100895.81;5062224;28;20043;-65
2022/04/02 11:28:24;;;;;;;1.15;0.82;;;;;;;14.03;24.19;100903.63;5062714;28;20048;-66
2022/04/02 11:31:05;;;;;;;2.53;1.02;;;;;;;13.93;23.74;100892.50;5062875;28;20507;-66
2022/04/02 11:33:49;;;;;;;1.27;0.80;;;;;;;12.78;24.06;100887.72;5062739;28;20041;-67
2022/04/02 11:36:15;;;;;;;1.45;0.90;;;;;;;11.73;24.83;100892.84;5063053;28;20028;-66
2022/04/02 11:38:56;;;;;;;2.38;1.15;;;;;;;10.76;25.26;100895.75;5062877;28;20047;-65
2022/04/02 11:41:45;;;;;;;4.40;1.03;;;;;;;9.68;26.05;100885.25;5062713;28;20029;-65